KMGY/MGY METAR and TAF weather

Enter ICAO airport designator
Station Type Date Time Source
KMGY METAR 2022/06/30 13:53 UTC NOAA

KMGY 301353Z AUTO 17009KT 10SM CLR 26/14 A3021 RMK AO2 SLP222 T02560139


Station Type Date Time Source
KMGY Decoded METAR 2022/06/30 13:53 UTC NOAA

DAYTON WRIGHT BROTHERS AIRPORT , OH, United States (KMGY) 39-36N 84-14W 289M
Jun 30, 2022 - 09:53 AM EDT / 2022.06.30 1353 UTC
Wind: from the S (170 degrees) at 10 MPH (9 KT):0
Visibility: 10 mile(s):0
Sky conditions: clear
Temperature: 78.1 F (25.6 C)
Dew Point: 57.0 F (13.9 C)
Relative Humidity: 48%
Pressure (altimeter): 30.21 in. Hg (1023 hPa)
ob: KMGY 301353Z AUTO 17009KT 10SM CLR 26/14 A3021 RMK AO2 SLP222 T02560139
cycle: 14

Station Type Date Time Source
KMGY TAF UTC NOAA

Error!

Example: see airport list